createdAt,value
2022-08-26T00:00:04.023Z,976.93
2022-08-26T00:01:03.372Z,977.07
2022-08-26T00:02:03.437Z,976.78
2022-08-26T00:03:03.509Z,976.87
2022-08-26T00:04:04.835Z,976.76
2022-08-26T00:05:03.602Z,976.87
2022-08-26T00:06:03.579Z,976.81
2022-08-26T00:07:05.615Z,976.82
2022-08-26T00:08:03.601Z,976.85
2022-08-26T00:09:08.334Z,976.85
2022-08-26T00:10:03.986Z,976.71
2022-08-26T00:11:03.097Z,976.76
2022-08-26T00:12:03.069Z,976.68
2022-08-26T00:13:03.149Z,976.85
2022-08-26T00:14:03.617Z,976.79
2022-08-26T00:15:04.274Z,976.71
2022-08-26T00:16:04.385Z,976.79
2022-08-26T00:17:05.377Z,976.77
2022-08-26T00:18:22.110Z,976.85
2022-08-26T00:19:03.637Z,976.85
2022-08-26T00:20:03.603Z,976.91
2022-08-26T00:21:06.678Z,976.86
2022-08-26T00:22:03.621Z,976.91
2022-08-26T00:23:03.821Z,976.86
2022-08-26T00:24:03.712Z,976.80
2022-08-26T00:25:03.680Z,976.95
2022-08-26T00:26:04.350Z,976.77
2022-08-26T00:27:03.791Z,976.80
2022-08-26T00:28:03.742Z,976.83
2022-08-26T00:29:05.426Z,976.77
2022-08-26T00:30:04.329Z,976.77
2022-08-26T00:31:03.527Z,976.86
2022-08-26T00:32:04.500Z,976.75
2022-08-26T00:33:03.206Z,976.83
2022-08-26T00:34:03.454Z,976.89
2022-08-26T00:35:03.274Z,976.83
2022-08-26T00:36:04.577Z,976.81
2022-08-26T00:37:03.679Z,976.95
2022-08-26T00:38:03.823Z,976.92
2022-08-26T00:39:03.440Z,976.95
2022-08-26T00:40:05.512Z,976.84
2022-08-26T00:41:03.864Z,976.98
2022-08-26T00:42:03.832Z,976.87
2022-08-26T00:43:09.679Z,976.93
2022-08-26T00:44:03.226Z,976.96
2022-08-26T00:45:11.729Z,977.02
2022-08-26T00:46:03.067Z,976.87
2022-08-26T00:47:03.166Z,976.96
2022-08-26T00:48:04.084Z,977.02
2022-08-26T00:49:03.727Z,976.96
2022-08-26T00:50:03.150Z,976.87
2022-08-26T00:51:04.245Z,977.02
2022-08-26T00:52:03.080Z,976.79
2022-08-26T00:53:03.464Z,976.90
2022-08-26T00:54:03.962Z,977.02
2022-08-26T00:55:03.151Z,976.99
2022-08-26T00:56:03.183Z,976.91
2022-08-26T00:57:04.236Z,976.91
2022-08-26T00:58:04.396Z,977.08
2022-08-26T00:59:04.572Z,976.88
2022-08-26T01:00:03.365Z,976.97
2022-08-26T01:01:03.520Z,976.88
2022-08-26T01:02:03.615Z,976.97
2022-08-26T01:03:05.775Z,977.00
2022-08-26T01:04:03.497Z,976.91
2022-08-26T01:05:04.266Z,976.91
2022-08-26T01:06:04.589Z,976.86
2022-08-26T01:07:03.881Z,977.03
2022-08-26T01:08:03.947Z,977.06
2022-08-26T01:09:03.694Z,976.92
2022-08-26T01:10:04.108Z,976.95
2022-08-26T01:11:04.647Z,976.92
2022-08-26T01:12:03.751Z,976.86
2022-08-26T01:13:03.893Z,976.92
2022-08-26T01:14:03.678Z,976.89
2022-08-26T01:15:05.463Z,976.95
2022-08-26T01:16:03.865Z,976.98
2022-08-26T01:17:05.405Z,976.78
2022-08-26T01:18:03.714Z,976.83
2022-08-26T01:19:03.798Z,976.89
2022-08-26T01:20:03.968Z,976.87
2022-08-26T01:21:03.496Z,976.90
2022-08-26T01:22:03.127Z,976.75
2022-08-26T01:23:03.902Z,976.75
2022-08-26T01:24:03.056Z,976.70
2022-08-26T01:25:03.920Z,976.68
2022-08-26T01:26:05.308Z,976.71
2022-08-26T01:27:03.226Z,976.79
2022-08-26T01:28:03.385Z,976.79
2022-08-26T01:29:03.409Z,976.82
2022-08-26T01:30:03.457Z,976.68
2022-08-26T01:31:05.444Z,976.71
2022-08-26T01:32:05.444Z,976.74
2022-08-26T01:33:03.656Z,976.66
2022-08-26T01:34:03.595Z,976.57
2022-08-26T01:35:03.685Z,976.66
2022-08-26T01:36:03.706Z,976.69
2022-08-26T01:37:05.623Z,976.63
2022-08-26T01:38:04.214Z,976.69
2022-08-26T01:39:07.294Z,976.63
2022-08-26T01:40:03.095Z,976.69
2022-08-26T01:41:02.934Z,976.54
2022-08-26T01:42:03.697Z,976.74
2022-08-26T01:43:02.993Z,976.72
2022-08-26T01:44:03.086Z,976.69
2022-08-26T01:45:04.583Z,976.66
2022-08-26T01:46:04.441Z,976.72
2022-08-26T01:47:06.474Z,976.77
2022-08-26T01:48:03.206Z,976.61
2022-08-26T01:49:06.806Z,976.55
2022-08-26T01:50:03.492Z,976.72
2022-08-26T01:51:03.373Z,976.61
2022-08-26T01:52:03.403Z,976.72
2022-08-26T01:53:04.157Z,976.58
2022-08-26T01:54:03.698Z,976.55
2022-08-26T01:55:03.460Z,976.46
2022-08-26T01:56:03.581Z,976.67
2022-08-26T01:57:03.527Z,976.61
2022-08-26T01:58:03.527Z,976.49
2022-08-26T01:59:04.327Z,976.61
2022-08-26T02:00:03.752Z,976.55
2022-08-26T02:01:04.338Z,976.64
2022-08-26T02:02:03.841Z,976.58
2022-08-26T02:03:05.258Z,976.61
2022-08-26T02:04:03.919Z,976.52
2022-08-26T02:05:03.863Z,976.55
2022-08-26T02:06:04.104Z,976.55
2022-08-26T02:07:03.868Z,976.61
2022-08-26T02:08:03.029Z,976.70
2022-08-26T02:09:04.183Z,976.50
2022-08-26T02:10:03.683Z,976.64
2022-08-26T02:11:03.137Z,976.61
2022-08-26T02:12:04.568Z,976.61
2022-08-26T02:13:03.618Z,976.61
2022-08-26T02:14:03.723Z,976.62
2022-08-26T02:15:06.087Z,976.44
2022-08-26T02:16:03.667Z,976.65
2022-08-26T02:17:07.461Z,976.65
2022-08-26T02:18:03.603Z,976.53
2022-08-26T02:19:03.977Z,976.71
2022-08-26T02:20:03.426Z,976.48
2022-08-26T02:21:06.974Z,976.56
2022-08-26T02:22:03.725Z,976.54
2022-08-26T02:23:03.660Z,976.45
2022-08-26T02:24:03.635Z,976.56
2022-08-26T02:25:03.616Z,976.48
2022-08-26T02:26:03.781Z,976.45
2022-08-26T02:27:03.726Z,976.42
2022-08-26T02:28:04.847Z,976.42
2022-08-26T02:29:03.755Z,976.48
2022-08-26T02:30:03.831Z,976.48
2022-08-26T02:31:04.483Z,976.51
2022-08-26T02:32:03.650Z,976.48
2022-08-26T02:33:03.051Z,976.40
2022-08-26T02:34:03.201Z,976.45
2022-08-26T02:35:03.404Z,976.40
2022-08-26T02:36:03.723Z,976.57
2022-08-26T02:37:03.822Z,976.51
2022-08-26T02:38:11.152Z,976.40
2022-08-26T02:39:03.741Z,976.37
2022-08-26T02:40:03.485Z,976.37
2022-08-26T02:41:03.310Z,976.43
2022-08-26T02:42:03.386Z,976.40
2022-08-26T02:43:03.394Z,976.49
2022-08-26T02:44:04.527Z,976.34
2022-08-26T02:45:04.704Z,976.26
2022-08-26T02:46:03.611Z,976.37
2022-08-26T02:47:05.653Z,976.37
2022-08-26T02:48:04.112Z,976.29
2022-08-26T02:49:03.588Z,976.23
2022-08-26T02:50:04.269Z,976.23
2022-08-26T02:51:03.749Z,976.26
2022-08-26T02:52:03.706Z,976.34
2022-08-26T02:53:03.741Z,976.20
2022-08-26T02:54:04.553Z,976.26
2022-08-26T02:55:04.423Z,976.17
2022-08-26T02:56:03.795Z,976.29
2022-08-26T02:57:03.743Z,976.29
2022-08-26T02:58:03.739Z,976.23
2022-08-26T02:59:04.190Z,976.20
2022-08-26T03:00:03.587Z,976.38
2022-08-26T03:01:05.708Z,976.32
2022-08-26T03:02:04.999Z,976.26
2022-08-26T03:03:03.835Z,976.17
2022-08-26T03:04:03.701Z,976.23
2022-08-26T03:05:03.799Z,976.17
2022-08-26T03:06:03.831Z,976.20
2022-08-26T03:07:03.002Z,976.23
2022-08-26T03:08:03.075Z,976.29
2022-08-26T03:09:03.651Z,976.18
2022-08-26T03:10:09.030Z,976.26
2022-08-26T03:11:03.534Z,976.26
2022-08-26T03:12:03.618Z,976.21
2022-08-26T03:13:05.717Z,976.24
2022-08-26T03:14:04.169Z,976.15
2022-08-26T03:15:18.183Z,976.26
2022-08-26T03:16:03.062Z,976.18
2022-08-26T03:17:04.238Z,976.18
2022-08-26T03:18:03.233Z,976.12
2022-08-26T03:19:03.388Z,976.26
2022-08-26T03:20:04.036Z,976.26
2022-08-26T03:21:05.099Z,976.18
2022-08-26T03:22:03.272Z,976.18
2022-08-26T03:23:04.749Z,976.21
2022-08-26T03:24:04.210Z,976.27
2022-08-26T03:25:03.690Z,976.15
2022-08-26T03:26:03.483Z,976.24
2022-08-26T03:27:07.669Z,976.21
2022-08-26T03:28:03.810Z,976.21
2022-08-26T03:29:03.834Z,976.13
2022-08-26T03:30:04.814Z,976.27
2022-08-26T03:31:03.978Z,976.24
2022-08-26T03:32:03.001Z,976.33
2022-08-26T03:33:03.179Z,976.33
2022-08-26T03:34:03.182Z,976.30
2022-08-26T03:35:03.190Z,976.30
2022-08-26T03:36:03.140Z,976.19
2022-08-26T03:37:03.251Z,976.30
2022-08-26T03:38:03.167Z,976.19
2022-08-26T03:39:03.244Z,976.27
2022-08-26T03:40:03.764Z,976.19
2022-08-26T03:41:03.637Z,976.22
2022-08-26T03:42:03.703Z,976.28
2022-08-26T03:43:03.846Z,976.28
2022-08-26T03:44:04.323Z,976.19
2022-08-26T03:45:04.039Z,976.13
2022-08-26T03:46:05.226Z,976.13
2022-08-26T03:47:06.251Z,976.22
2022-08-26T03:48:03.712Z,976.22
2022-08-26T03:49:03.028Z,976.17
2022-08-26T03:50:02.971Z,976.08
2022-08-26T03:51:03.499Z,976.17
2022-08-26T03:52:04.056Z,976.28
2022-08-26T03:53:03.070Z,976.08
2022-08-26T03:54:03.148Z,976.08
2022-08-26T03:55:03.280Z,976.08
2022-08-26T03:56:03.281Z,976.14
2022-08-26T03:57:03.449Z,976.08
2022-08-26T03:58:03.644Z,976.08
2022-08-26T03:59:03.554Z,975.99
2022-08-26T04:00:03.727Z,976.02
2022-08-26T04:01:03.733Z,976.14
2022-08-26T04:02:11.926Z,976.17
2022-08-26T04:03:04.227Z,976.08
2022-08-26T04:04:03.911Z,976.17
2022-08-26T04:05:03.880Z,976.08
2022-08-26T04:06:03.026Z,976.17
2022-08-26T04:07:03.014Z,976.05
2022-08-26T04:08:03.024Z,976.02
2022-08-26T04:09:04.632Z,976.17
2022-08-26T04:10:03.048Z,976.08
2022-08-26T04:11:03.246Z,976.11
2022-08-26T04:12:03.711Z,976.17
2022-08-26T04:13:04.362Z,976.17
2022-08-26T04:14:03.334Z,976.00
2022-08-26T04:15:03.270Z,976.08
2022-08-26T04:16:03.564Z,976.14
2022-08-26T04:17:03.430Z,976.08
2022-08-26T04:18:03.498Z,976.14
2022-08-26T04:19:03.485Z,976.08
2022-08-26T04:20:03.514Z,976.11
2022-08-26T04:21:08.139Z,975.97
2022-08-26T04:22:03.669Z,976.20
2022-08-26T04:23:06.222Z,976.06
2022-08-26T04:24:04.274Z,976.08
2022-08-26T04:25:07.118Z,976.09
2022-08-26T04:26:03.160Z,976.09
2022-08-26T04:27:03.393Z,976.03
2022-08-26T04:28:03.323Z,976.20
2022-08-26T04:29:03.210Z,975.97
2022-08-26T04:30:03.978Z,976.12
2022-08-26T04:31:03.588Z,976.09
2022-08-26T04:32:03.541Z,976.09
2022-08-26T04:33:13.444Z,976.00
2022-08-26T04:34:04.036Z,976.09
2022-08-26T04:35:04.934Z,976.09
2022-08-26T04:36:04.440Z,975.94
2022-08-26T04:37:03.836Z,976.00
2022-08-26T04:38:06.128Z,976.03
2022-08-26T04:39:03.002Z,975.91
2022-08-26T04:40:04.389Z,975.94
2022-08-26T04:41:05.748Z,976.09
2022-08-26T04:42:03.089Z,975.97
2022-08-26T04:43:03.132Z,975.89
2022-08-26T04:44:03.256Z,975.97
2022-08-26T04:45:11.641Z,976.09
2022-08-26T04:46:03.391Z,975.86
2022-08-26T04:47:03.430Z,976.15
2022-08-26T04:48:04.568Z,975.91
2022-08-26T04:49:03.462Z,975.97
2022-08-26T04:50:03.455Z,975.97
2022-08-26T04:51:05.283Z,975.94
2022-08-26T04:52:05.103Z,975.97
2022-08-26T04:53:05.325Z,976.03
2022-08-26T04:54:04.666Z,976.09
2022-08-26T04:55:08.339Z,976.00
2022-08-26T04:56:04.625Z,975.91
2022-08-26T04:57:03.650Z,976.17
2022-08-26T04:58:04.143Z,976.00
2022-08-26T04:59:03.036Z,976.05
2022-08-26T05:00:03.109Z,976.02
2022-08-26T05:01:04.748Z,975.93
2022-08-26T05:02:05.742Z,975.82
2022-08-26T05:03:04.502Z,975.93
2022-08-26T05:04:07.963Z,975.99
2022-08-26T05:05:03.743Z,975.99
2022-08-26T05:06:03.355Z,976.04
2022-08-26T05:07:03.532Z,975.95
2022-08-26T05:08:03.262Z,975.92
2022-08-26T05:09:03.295Z,976.09
2022-08-26T05:10:03.703Z,975.97
2022-08-26T05:11:06.008Z,976.00
2022-08-26T05:12:03.650Z,976.00
2022-08-26T05:13:12.102Z,976.11
2022-08-26T05:14:03.875Z,976.05
2022-08-26T05:15:05.622Z,976.04
2022-08-26T05:16:02.961Z,976.01
2022-08-26T05:17:03.047Z,976.07
2022-08-26T05:18:02.928Z,975.98
2022-08-26T05:19:03.000Z,976.06
2022-08-26T05:20:04.132Z,976.03
2022-08-26T05:21:03.133Z,976.11
2022-08-26T05:22:03.148Z,976.17
2022-08-26T05:23:03.290Z,975.99
2022-08-26T05:24:03.565Z,976.10
2022-08-26T05:25:03.661Z,976.04
2022-08-26T05:26:05.341Z,976.12
2022-08-26T05:27:12.055Z,976.17
2022-08-26T05:28:03.978Z,976.20
2022-08-26T05:29:03.984Z,976.28
2022-08-26T05:30:04.366Z,976.28
2022-08-26T05:31:03.730Z,976.22
2022-08-26T05:32:05.196Z,976.36
2022-08-26T05:33:03.684Z,976.35
2022-08-26T05:34:04.187Z,976.35
2022-08-26T05:35:09.205Z,976.32
2022-08-26T05:36:03.756Z,976.37
2022-08-26T05:37:04.302Z,976.42
2022-08-26T05:38:05.898Z,976.33
2022-08-26T05:39:03.831Z,976.47
2022-08-26T05:40:04.199Z,976.41
2022-08-26T05:41:03.817Z,976.38
2022-08-26T05:42:03.012Z,976.49
2022-08-26T05:43:03.023Z,976.46
2022-08-26T05:44:03.055Z,976.54
2022-08-26T05:45:03.169Z,976.60
2022-08-26T05:46:06.101Z,976.51
2022-08-26T05:47:04.199Z,976.60
2022-08-26T05:48:06.432Z,976.57
2022-08-26T05:49:03.389Z,976.65
2022-08-26T05:50:05.436Z,976.76
2022-08-26T05:51:03.541Z,976.73
2022-08-26T05:52:03.540Z,976.75
2022-08-26T05:53:04.751Z,976.67
2022-08-26T05:54:03.909Z,976.67
2022-08-26T05:55:03.674Z,976.77
2022-08-26T05:56:04.056Z,976.74
2022-08-26T05:57:03.937Z,976.82
2022-08-26T05:58:03.933Z,976.76
2022-08-26T05:59:04.829Z,976.74
2022-08-26T06:00:02.988Z,976.73
2022-08-26T06:01:03.138Z,976.95
2022-08-26T06:02:03.033Z,976.75
2022-08-26T06:03:03.314Z,976.77
2022-08-26T06:04:03.082Z,976.97
2022-08-26T06:05:03.597Z,977.03
2022-08-26T06:06:03.345Z,976.76
2022-08-26T06:07:05.729Z,976.87
2022-08-26T06:08:04.084Z,976.90
2022-08-26T06:09:03.293Z,976.92
2022-08-26T06:10:32.297Z,977.09
2022-08-26T06:11:05.711Z,977.06
2022-08-26T06:12:03.626Z,977.06
2022-08-26T06:13:12.432Z,977.02
2022-08-26T06:14:04.456Z,977.05
2022-08-26T06:15:04.407Z,977.05
2022-08-26T06:16:04.919Z,977.10
2022-08-26T06:17:03.521Z,977.15
2022-08-26T06:18:03.471Z,977.06
2022-08-26T06:19:03.428Z,977.12
2022-08-26T06:20:03.355Z,977.23
2022-08-26T06:21:03.495Z,977.05
2022-08-26T06:22:03.616Z,977.20
2022-08-26T06:23:04.723Z,977.05
2022-08-26T06:24:03.648Z,977.25
2022-08-26T06:25:04.810Z,977.19
2022-08-26T06:26:03.739Z,977.16
2022-08-26T06:27:04.135Z,977.30
2022-08-26T06:28:04.045Z,977.33
2022-08-26T06:29:04.481Z,977.20
2022-08-26T06:30:04.170Z,977.41
2022-08-26T06:31:04.585Z,977.26
2022-08-26T06:32:03.010Z,977.37
2022-08-26T06:33:05.227Z,977.37
2022-08-26T06:34:10.481Z,977.51
2022-08-26T06:35:02.926Z,977.45
2022-08-26T06:36:02.916Z,977.42
2022-08-26T06:37:03.687Z,977.42
2022-08-26T06:38:03.760Z,977.42
2022-08-26T06:39:03.135Z,977.47
2022-08-26T06:40:04.163Z,977.53
2022-08-26T06:41:03.347Z,977.56
2022-08-26T06:42:06.192Z,977.41
2022-08-26T06:43:03.302Z,977.58
2022-08-26T06:44:03.178Z,977.52
2022-08-26T06:45:03.537Z,977.40
2022-08-26T06:46:05.228Z,977.58
2022-08-26T06:47:03.290Z,977.55
2022-08-26T06:48:03.710Z,977.71
2022-08-26T06:49:03.486Z,977.52
2022-08-26T06:50:03.547Z,977.51
2022-08-26T06:51:03.599Z,977.48
2022-08-26T06:52:03.719Z,977.57
2022-08-26T06:53:04.368Z,977.68
2022-08-26T06:54:03.707Z,977.68
2022-08-26T06:55:03.825Z,977.60
2022-08-26T06:56:03.864Z,977.56
2022-08-26T06:57:04.223Z,977.73
2022-08-26T06:58:04.674Z,977.70
2022-08-26T06:59:03.119Z,977.67
2022-08-26T07:00:03.177Z,977.62
2022-08-26T07:01:12.010Z,977.59
2022-08-26T07:02:03.465Z,977.61
2022-08-26T07:03:03.407Z,977.72
2022-08-26T07:04:05.116Z,977.69
2022-08-26T07:05:03.263Z,977.71
2022-08-26T07:06:03.835Z,977.57
2022-08-26T07:07:03.310Z,977.68
2022-08-26T07:08:03.410Z,977.68
2022-08-26T07:09:03.639Z,977.76
2022-08-26T07:10:03.411Z,977.70
2022-08-26T07:11:03.637Z,977.79
2022-08-26T07:12:04.881Z,977.73
2022-08-26T07:13:06.259Z,977.79
2022-08-26T07:14:03.550Z,977.67
2022-08-26T07:15:04.801Z,977.59
2022-08-26T07:16:04.522Z,977.66
2022-08-26T07:17:03.959Z,977.75
2022-08-26T07:18:03.727Z,977.75
2022-08-26T07:19:11.579Z,977.75
2022-08-26T07:20:05.195Z,977.71
2022-08-26T07:21:03.655Z,977.74
2022-08-26T07:22:04.331Z,977.80
2022-08-26T07:23:03.700Z,977.68
2022-08-26T07:24:03.644Z,977.86
2022-08-26T07:25:03.730Z,977.89
2022-08-26T07:26:04.942Z,977.80
2022-08-26T07:27:05.946Z,977.86
2022-08-26T07:28:03.887Z,977.77
2022-08-26T07:29:03.918Z,977.83
2022-08-26T07:30:02.948Z,977.76
2022-08-26T07:31:03.191Z,977.79
2022-08-26T07:32:03.246Z,977.85
2022-08-26T07:33:04.878Z,977.79
2022-08-26T07:34:04.148Z,977.76
2022-08-26T07:35:03.254Z,977.84
2022-08-26T07:36:04.636Z,977.81
2022-08-26T07:37:03.311Z,977.87
2022-08-26T07:38:03.561Z,977.87
2022-08-26T07:39:03.452Z,977.93
2022-08-26T07:40:03.680Z,977.87
2022-08-26T07:41:03.572Z,977.90
2022-08-26T07:42:08.249Z,977.84
2022-08-26T07:43:03.685Z,977.92
2022-08-26T07:44:04.631Z,977.98
2022-08-26T07:45:03.871Z,977.83
2022-08-26T07:46:02.963Z,977.71
2022-08-26T07:47:02.912Z,977.92
2022-08-26T07:48:04.361Z,977.89
2022-08-26T07:49:03.108Z,977.86
2022-08-26T07:50:03.035Z,977.85
2022-08-26T07:51:03.079Z,977.97
2022-08-26T07:52:03.139Z,977.94
2022-08-26T07:53:03.137Z,977.88
2022-08-26T07:54:03.104Z,977.90
2022-08-26T07:55:03.145Z,977.90
2022-08-26T07:56:03.259Z,977.96
2022-08-26T07:57:09.375Z,977.90
2022-08-26T07:58:03.357Z,977.96
2022-08-26T07:59:15.089Z,977.87
2022-08-26T08:00:03.483Z,977.93
2022-08-26T08:01:05.076Z,977.89
2022-08-26T08:02:03.670Z,977.86
2022-08-26T08:03:03.707Z,977.98
2022-08-26T08:04:04.066Z,977.98
2022-08-26T08:05:04.085Z,977.91
2022-08-26T08:06:03.234Z,977.94
2022-08-26T08:07:03.232Z,978.00
2022-08-26T08:08:29.111Z,977.94
2022-08-26T08:09:04.868Z,978.00
2022-08-26T08:10:09.974Z,978.03
2022-08-26T08:11:03.166Z,978.02
2022-08-26T08:12:03.218Z,978.02
2022-08-26T08:13:03.275Z,978.14
2022-08-26T08:14:08.799Z,978.05
2022-08-26T08:15:03.992Z,978.08
2022-08-26T08:16:03.346Z,978.02
2022-08-26T08:17:03.892Z,978.08
2022-08-26T08:18:04.473Z,977.99
2022-08-26T08:19:04.110Z,978.04
2022-08-26T08:20:04.588Z,977.92
2022-08-26T08:21:23.722Z,977.92
2022-08-26T08:22:17.023Z,977.98
2022-08-26T08:23:03.758Z,977.95
2022-08-26T08:24:03.840Z,978.06
2022-08-26T08:25:08.454Z,978.06
2022-08-26T08:26:03.043Z,977.91
2022-08-26T08:27:04.004Z,978.00
2022-08-26T08:28:03.051Z,978.00
2022-08-26T08:29:03.013Z,977.97
2022-08-26T08:30:02.986Z,977.97
2022-08-26T08:31:03.744Z,978.00
2022-08-26T08:32:03.186Z,977.85
2022-08-26T08:33:03.031Z,977.97
2022-08-26T08:34:03.163Z,977.88
2022-08-26T08:35:11.677Z,977.94
2022-08-26T08:36:03.390Z,977.94
2022-08-26T08:37:10.577Z,977.91
2022-08-26T08:38:04.546Z,978.03
2022-08-26T08:39:04.179Z,977.91
2022-08-26T08:40:03.673Z,977.73
2022-08-26T08:41:05.910Z,977.88
2022-08-26T08:42:04.607Z,977.82
2022-08-26T08:43:04.376Z,977.88
2022-08-26T08:44:03.668Z,977.79
2022-08-26T08:45:04.253Z,977.85
2022-08-26T08:46:04.690Z,977.76
2022-08-26T08:47:03.748Z,977.79
2022-08-26T08:48:04.526Z,977.70
2022-08-26T08:49:03.216Z,977.59
2022-08-26T08:50:02.971Z,977.70
2022-08-26T08:51:03.059Z,977.62
2022-08-26T08:52:04.497Z,977.59
2022-08-26T08:53:08.813Z,977.79
2022-08-26T08:54:04.549Z,977.67
2022-08-26T08:55:03.169Z,977.62
2022-08-26T08:56:03.247Z,977.70
2022-08-26T08:57:03.508Z,977.67
2022-08-26T08:58:03.488Z,977.54
2022-08-26T08:59:03.594Z,977.57
2022-08-26T09:00:04.065Z,977.51
2022-08-26T09:01:04.788Z,977.57
2022-08-26T09:02:03.515Z,977.48
2022-08-26T09:03:03.534Z,977.36
2022-08-26T09:04:03.481Z,977.42
2022-08-26T09:05:04.567Z,977.54
2022-08-26T09:06:03.911Z,977.48
2022-08-26T09:07:04.104Z,977.36
2022-08-26T09:08:03.085Z,977.39
2022-08-26T09:09:03.707Z,977.39
2022-08-26T09:10:03.245Z,977.30
2022-08-26T09:11:03.406Z,977.45
2022-08-26T09:12:04.497Z,977.27
2022-08-26T09:13:04.884Z,977.18
2022-08-26T09:14:03.674Z,977.30
2022-08-26T09:15:03.621Z,977.26
2022-08-26T09:16:03.636Z,977.32
2022-08-26T09:17:05.373Z,977.23
2022-08-26T09:18:06.161Z,977.32
2022-08-26T09:19:03.909Z,977.23
2022-08-26T09:20:03.846Z,977.26
2022-08-26T09:21:03.984Z,977.29
2022-08-26T09:22:09.442Z,977.29
2022-08-26T09:23:03.097Z,977.23
2022-08-26T09:24:03.315Z,977.20
2022-08-26T09:25:03.247Z,977.23
2022-08-26T09:26:03.059Z,977.16
2022-08-26T09:27:05.923Z,977.22
2022-08-26T09:28:03.887Z,977.16
2022-08-26T09:29:03.177Z,977.10
2022-08-26T09:30:03.583Z,977.16
2022-08-26T09:31:09.295Z,977.10
2022-08-26T09:32:03.447Z,977.16
2022-08-26T09:33:11.239Z,977.22
2022-08-26T09:34:03.811Z,977.34
2022-08-26T09:35:03.335Z,977.22
2022-08-26T09:36:03.240Z,977.19
2022-08-26T09:37:05.064Z,977.11
2022-08-26T09:38:04.840Z,977.14
2022-08-26T09:39:03.470Z,977.11
2022-08-26T09:40:03.659Z,977.05
2022-08-26T09:41:05.461Z,977.08
2022-08-26T09:42:03.706Z,977.11
2022-08-26T09:43:04.460Z,977.08
2022-08-26T09:44:03.905Z,977.02
2022-08-26T09:45:03.879Z,977.05
2022-08-26T09:46:03.087Z,977.14
2022-08-26T09:47:04.203Z,977.05
2022-08-26T09:48:05.125Z,977.08
2022-08-26T09:49:05.262Z,977.02
2022-08-26T09:50:04.615Z,977.05
2022-08-26T09:51:03.298Z,977.13
2022-08-26T09:52:03.674Z,977.14
2022-08-26T09:53:12.739Z,977.17
2022-08-26T09:54:08.172Z,977.20
2022-08-26T09:55:03.784Z,977.17
2022-08-26T09:56:06.815Z,977.06
2022-08-26T09:57:03.693Z,977.12
2022-08-26T09:58:09.653Z,977.15
2022-08-26T09:59:06.808Z,977.21
2022-08-26T10:00:03.024Z,977.04
2022-08-26T10:01:03.194Z,977.01
2022-08-26T10:02:02.990Z,976.98
2022-08-26T10:03:03.762Z,977.04
2022-08-26T10:04:03.172Z,976.89
2022-08-26T10:05:09.952Z,976.83
2022-08-26T10:06:03.097Z,976.86
2022-08-26T10:07:03.208Z,976.77
2022-08-26T10:08:03.282Z,976.85
2022-08-26T10:09:09.752Z,976.71
2022-08-26T10:10:08.587Z,976.85
2022-08-26T10:11:03.628Z,976.85
2022-08-26T10:12:04.402Z,976.88
2022-08-26T10:13:03.434Z,976.71
2022-08-26T10:14:03.512Z,976.84
2022-08-26T10:15:03.541Z,976.84
2022-08-26T10:16:05.883Z,976.84
2022-08-26T10:17:07.216Z,976.81
2022-08-26T10:18:04.243Z,976.64
2022-08-26T10:19:05.962Z,976.75
2022-08-26T10:20:03.290Z,976.73
2022-08-26T10:21:03.854Z,976.80
2022-08-26T10:22:03.645Z,976.66
2022-08-26T10:23:03.378Z,976.72
2022-08-26T10:24:03.309Z,976.66
2022-08-26T10:25:04.102Z,976.69
2022-08-26T10:26:03.354Z,976.79
2022-08-26T10:27:03.535Z,976.63
2022-08-26T10:28:03.474Z,976.59
2022-08-26T10:29:05.266Z,976.62
2022-08-26T10:30:03.758Z,976.56
2022-08-26T10:31:03.782Z,976.47
2022-08-26T10:32:04.200Z,976.65
2022-08-26T10:33:03.777Z,976.50
2022-08-26T10:34:03.020Z,976.59
2022-08-26T10:35:03.222Z,976.41
2022-08-26T10:36:03.168Z,976.59
2022-08-26T10:37:16.567Z,976.47
2022-08-26T10:38:03.165Z,976.43
2022-08-26T10:39:03.187Z,976.40
2022-08-26T10:40:03.632Z,976.40
2022-08-26T10:41:10.598Z,976.40
2022-08-26T10:42:05.339Z,976.46
2022-08-26T10:43:10.582Z,976.43
2022-08-26T10:44:04.108Z,976.40
2022-08-26T10:45:04.032Z,976.32
2022-08-26T10:46:03.794Z,976.34
2022-08-26T10:47:05.549Z,976.49
2022-08-26T10:48:03.769Z,976.43
2022-08-26T10:49:07.025Z,976.43
2022-08-26T10:50:04.062Z,976.52
2022-08-26T10:51:04.421Z,976.46
2022-08-26T10:52:16.782Z,976.52
2022-08-26T10:53:03.921Z,976.46
2022-08-26T10:54:03.650Z,976.64
2022-08-26T10:55:03.474Z,976.70
2022-08-26T10:56:04.733Z,976.75
2022-08-26T10:57:03.568Z,976.87
2022-08-26T10:58:08.886Z,976.78
2022-08-26T10:59:04.554Z,976.70
2022-08-26T11:00:04.586Z,976.73
2022-08-26T11:01:10.841Z,976.84
2022-08-26T11:02:04.249Z,976.75
2022-08-26T11:03:03.798Z,976.70
2022-08-26T11:04:04.575Z,976.70
2022-08-26T11:05:03.917Z,976.75
2022-08-26T11:06:05.186Z,976.75
2022-08-26T11:07:03.865Z,976.75
2022-08-26T11:08:03.157Z,976.93
2022-08-26T11:09:03.142Z,976.67
2022-08-26T11:10:03.257Z,976.64
2022-08-26T11:11:03.095Z,976.75
2022-08-26T11:12:10.715Z,976.64
2022-08-26T11:13:03.335Z,976.55
2022-08-26T11:14:03.377Z,976.64
2022-08-26T11:15:05.530Z,976.57
2022-08-26T11:16:05.765Z,976.40
2022-08-26T11:17:03.984Z,976.40
2022-08-26T11:18:03.857Z,976.51
2022-08-26T11:19:04.170Z,976.48
2022-08-26T11:20:13.551Z,976.36
2022-08-26T11:21:10.567Z,976.42
2022-08-26T11:22:03.507Z,976.39
2022-08-26T11:23:03.017Z,976.39
2022-08-26T11:24:05.537Z,976.45
2022-08-26T11:25:03.316Z,976.42
2022-08-26T11:26:03.881Z,976.39
2022-08-26T11:27:04.092Z,976.45
2022-08-26T11:28:03.484Z,976.27
2022-08-26T11:29:03.560Z,976.42
2022-08-26T11:30:03.527Z,976.27
2022-08-26T11:31:04.939Z,976.42
2022-08-26T11:32:04.058Z,976.27
2022-08-26T11:33:05.082Z,976.37
2022-08-26T11:34:03.746Z,976.22
2022-08-26T11:35:04.774Z,976.28
2022-08-26T11:36:12.628Z,976.25
2022-08-26T11:37:04.393Z,976.22
2022-08-26T11:38:04.628Z,976.22
2022-08-26T11:39:03.186Z,976.17
2022-08-26T11:40:04.311Z,976.08
2022-08-26T11:41:04.284Z,976.23
2022-08-26T11:42:03.206Z,976.23
2022-08-26T11:43:03.243Z,975.99
2022-08-26T11:44:03.234Z,976.11
2022-08-26T11:45:05.952Z,976.14
2022-08-26T11:46:03.437Z,975.97
2022-08-26T11:47:03.344Z,976.06
2022-08-26T11:48:03.363Z,976.00
2022-08-26T11:49:04.584Z,976.12
2022-08-26T11:50:03.453Z,976.06
2022-08-26T11:51:03.659Z,976.06
2022-08-26T11:52:03.644Z,976.03
2022-08-26T11:53:03.673Z,976.18
2022-08-26T11:54:05.115Z,976.11
2022-08-26T11:55:03.802Z,976.20
2022-08-26T11:56:03.817Z,976.08
2022-08-26T11:57:11.664Z,975.99
2022-08-26T11:58:05.159Z,976.11
2022-08-26T11:59:02.902Z,975.93
2022-08-26T12:00:03.007Z,975.96
2022-08-26T12:01:03.929Z,975.96
2022-08-26T12:02:03.156Z,975.92
2022-08-26T12:03:03.405Z,976.07
2022-08-26T12:04:03.426Z,975.95
2022-08-26T12:05:03.643Z,976.04
2022-08-26T12:06:03.619Z,976.01
2022-08-26T12:07:04.177Z,975.90
2022-08-26T12:08:03.498Z,976.08
2022-08-26T12:09:05.983Z,975.90
2022-08-26T12:10:03.564Z,976.05
2022-08-26T12:11:03.609Z,975.96
2022-08-26T12:12:04.216Z,975.94
2022-08-26T12:13:03.816Z,975.91
2022-08-26T12:14:03.801Z,975.79
2022-08-26T12:15:03.710Z,975.82
2022-08-26T12:16:03.366Z,975.88
2022-08-26T12:17:03.074Z,975.92
2022-08-26T12:18:03.173Z,975.92
2022-08-26T12:19:04.452Z,975.86
2022-08-26T12:20:03.254Z,975.83
2022-08-26T12:21:03.250Z,975.83
2022-08-26T12:22:03.390Z,975.80
2022-08-26T12:23:03.381Z,975.87
2022-08-26T12:24:03.356Z,975.84
2022-08-26T12:25:03.432Z,975.90
2022-08-26T12:26:04.225Z,975.81
2022-08-26T12:27:03.388Z,975.81
2022-08-26T12:28:04.349Z,975.75